BKPR Airport Information

Runway Information
Runway 17 Length 8165 ft width 148 ft
Elevation 1789 ft Threshold 0 ft Heading 176
Runway 35 Length 8165 ft Width 148 ft
Elevation 1786 ft Threshold 0 ft Heading 356
Airport Frequencies
Type APP Name APP Frequency 118.775 MHZ
Type GND Name GND Frequency 118 MHZ
Type RMP Name RAMP OPR Frequency 136.8 MHZ
Type TWR Name TWR Frequency 120.125 MHZ
Airport Navaids
Airport Weather Information & NOTAM
ADDS - METARS form results

(0134 UTC 19 August 2018)
 
METAR text: BKPR 190130Z VRB02KT CAVOK 15/12 Q1019 NOSIG
Conditions at: BKPR (PRISHTINA , CS) observed 0130 UTC 19 August 2018
Temperature: 15.0°C (59°F)
Dewpoint: 12.0°C (54°F) [RH = 82%]
Pressure (altimeter): 30.09 inches Hg (1019.0 mb)
Winds: variable direction winds at 2 MPH (2 knots; 1.0 m/s)
Visibility: 6 or more miles (10+ km)
Ceiling: ceiling and visibility are OK
Clouds: unknown
Weather: no significant weather observed at this time

METAR text: BKPR 190100Z VRB01KT CAVOK 17/13 Q1019 NOSIG
Conditions at: BKPR (PRISHTINA , CS) observed 0100 UTC 19 August 2018
Temperature: 17.0°C (63°F)
Dewpoint: 13.0°C (55°F) [RH = 77%]
Pressure (altimeter): 30.09 inches Hg (1019.0 mb)
Winds: variable direction winds at 1 MPH (1 knots; 0.5 m/s)
Visibility: 6 or more miles (10+ km)
Ceiling: ceiling and visibility are OK
Clouds: unknown
Weather: no significant weather observed at this time